createdAt,value
2022-12-13T00:01:20.844Z,-9.60
2022-12-13T00:03:48.990Z,-9.90
2022-12-13T00:06:16.864Z,-10.20
2022-12-13T00:08:46.099Z,-10.10
2022-12-13T00:11:14.546Z,-10.40
2022-12-13T00:13:42.699Z,-10.30
2022-12-13T00:16:12.778Z,-10.20
2022-12-13T00:18:40.780Z,-10.20
2022-12-13T00:21:09.008Z,-10.00
2022-12-13T00:23:36.916Z,-10.00
2022-12-13T00:26:07.296Z,-10.10
2022-12-13T00:28:35.203Z,-10.20
2022-12-13T00:31:26.993Z,-9.90
2022-12-13T00:33:51.148Z,-9.80
2022-12-13T00:36:19.024Z,-10.30
2022-12-13T00:38:46.850Z,-9.80
2022-12-13T00:41:16.934Z,-10.50
2022-12-13T00:43:44.813Z,-10.40
2022-12-13T00:46:13.234Z,-10.20
2022-12-13T00:48:41.103Z,-10.40
2022-12-13T00:51:09.135Z,-10.60
2022-12-13T00:53:37.244Z,-10.40
2022-12-13T00:56:05.395Z,-10.20
2022-12-13T00:58:34.574Z,-10.50
2022-12-13T01:01:05.663Z,-10.30
2022-12-13T01:03:33.657Z,-10.00
2022-12-13T01:06:14.989Z,-10.70
2022-12-13T01:08:43.401Z,-10.80
2022-12-13T01:11:11.450Z,-10.50
2022-12-13T01:13:40.665Z,-10.40
2022-12-13T01:16:10.095Z,-9.80
2022-12-13T01:18:37.993Z,-9.50
2022-12-13T01:21:07.269Z,-9.20
2022-12-13T01:23:35.181Z,-9.30
2022-12-13T01:26:03.626Z,-9.20
2022-12-13T01:28:31.516Z,-10.00
2022-12-13T01:31:02.044Z,-9.90
2022-12-13T01:33:30.312Z,-10.40
2022-12-13T01:35:58.207Z,-10.30
2022-12-13T01:38:26.327Z,-10.40
2022-12-13T01:40:58.967Z,-10.90
2022-12-13T01:43:27.160Z,-10.90
2022-12-13T01:45:55.030Z,-10.40
2022-12-13T01:48:25.687Z,-10.30
2022-12-13T01:50:54.265Z,-10.30
2022-12-13T01:53:23.925Z,-10.60
2022-12-13T01:55:54.514Z,-10.60
2022-12-13T01:58:22.459Z,-11.00
2022-12-13T02:00:50.407Z,-11.20
2022-12-13T02:03:21.508Z,-11.30
2022-12-13T02:05:54.296Z,-11.20
2022-12-13T02:08:22.493Z,-11.30
2022-12-13T02:10:50.380Z,-11.20
2022-12-13T02:13:18.226Z,-10.70
2022-12-13T02:15:48.645Z,-11.00
2022-12-13T02:18:34.189Z,-11.30
2022-12-13T02:21:14.010Z,-11.50
2022-12-13T02:24:28.211Z,-11.20
2022-12-13T02:27:12.199Z,-10.60
2022-12-13T02:30:18.057Z,-10.70
2022-12-13T02:33:12.959Z,-10.70
2022-12-13T02:35:53.157Z,-11.00
2022-12-13T02:38:25.611Z,-11.00
2022-12-13T02:40:55.548Z,-10.80
2022-12-13T02:43:33.671Z,-10.60
2022-12-13T02:46:03.344Z,-11.00
2022-12-13T02:48:32.903Z,-11.30
2022-12-13T02:51:00.920Z,-11.40
2022-12-13T02:53:28.792Z,-11.50
2022-12-13T02:55:56.676Z,-11.30
2022-12-13T02:58:30.300Z,-11.10
2022-12-13T03:01:02.688Z,-11.00
2022-12-13T03:03:37.364Z,-11.30
2022-12-13T03:06:34.023Z,-11.10
2022-12-13T03:09:13.646Z,-11.20
2022-12-13T03:12:11.668Z,-10.90
2022-12-13T03:14:40.692Z,-11.50
2022-12-13T03:17:08.544Z,-11.30
2022-12-13T03:19:37.764Z,-11.60
2022-12-13T03:22:06.832Z,-11.20
2022-12-13T03:24:34.691Z,-11.30
2022-12-13T03:27:02.567Z,-11.30
2022-12-13T03:29:30.451Z,-11.70
2022-12-13T03:31:58.329Z,-11.30
2022-12-13T03:34:26.168Z,-11.00
2022-12-13T03:37:14.172Z,-11.50
2022-12-13T03:39:42.016Z,-11.10
2022-12-13T03:42:09.881Z,-11.00
2022-12-13T03:44:37.804Z,-10.70
2022-12-13T03:47:05.769Z,-10.90
2022-12-13T03:49:35.495Z,-11.50
2022-12-13T03:52:03.773Z,-11.60
2022-12-13T03:54:32.969Z,-11.70
2022-12-13T03:57:00.971Z,-11.60
2022-12-13T03:59:28.816Z,-11.30
2022-12-13T04:01:56.702Z,-10.80
2022-12-13T04:04:24.575Z,-11.10
2022-12-13T04:06:52.428Z,-11.80
2022-12-13T04:09:20.278Z,-11.90
2022-12-13T04:12:07.021Z,-11.90
2022-12-13T04:14:34.862Z,-11.70
2022-12-13T04:17:02.716Z,-11.20
2022-12-13T04:19:30.584Z,-11.10
2022-12-13T04:21:58.460Z,-11.50
2022-12-13T04:24:31.075Z,-11.80
2022-12-13T04:27:01.365Z,-11.80
2022-12-13T04:29:34.687Z,-11.80
2022-12-13T04:32:03.395Z,-12.20
2022-12-13T04:34:36.928Z,-11.90
2022-12-13T04:37:05.655Z,-11.70
2022-12-13T04:39:34.219Z,-11.90
2022-12-13T04:42:05.125Z,-11.30
2022-12-13T04:44:36.902Z,-11.60
2022-12-13T04:47:05.279Z,-11.60
2022-12-13T04:49:33.269Z,-11.00
2022-12-13T04:52:01.910Z,-11.10
2022-12-13T04:54:36.447Z,-11.40
2022-12-13T04:57:07.583Z,-12.10
2022-12-13T04:59:35.559Z,-12.10
2022-12-13T05:02:03.739Z,-11.70
2022-12-13T05:04:33.217Z,-11.70
2022-12-13T05:07:01.383Z,-12.00
2022-12-13T05:09:29.233Z,-11.50
2022-12-13T05:12:01.093Z,-11.60
2022-12-13T05:14:31.217Z,-11.70
2022-12-13T05:16:59.249Z,-11.30
2022-12-13T05:19:31.026Z,-11.20
2022-12-13T05:22:01.469Z,-11.40
2022-12-13T05:24:30.477Z,-11.70
2022-12-13T05:26:58.680Z,-11.90
2022-12-13T05:29:27.542Z,-11.70
2022-12-13T05:31:56.834Z,-11.80
2022-12-13T05:34:24.751Z,-12.30
2022-12-13T05:36:52.633Z,-11.90
2022-12-13T05:39:29.362Z,-11.70
2022-12-13T05:42:01.318Z,-12.10
2022-12-13T05:44:30.857Z,-11.80
2022-12-13T05:47:02.597Z,-11.80
2022-12-13T05:49:30.978Z,-11.90
2022-12-13T05:51:58.801Z,-11.60
2022-12-13T05:54:26.689Z,-11.40
2022-12-13T05:56:54.519Z,-11.80
2022-12-13T05:59:22.376Z,-11.90
2022-12-13T06:01:50.261Z,-11.20
2022-12-13T06:04:23.166Z,-11.30
2022-12-13T06:06:51.588Z,-11.30
2022-12-13T06:09:19.760Z,-11.50
2022-12-13T06:11:47.614Z,-11.70
2022-12-13T06:14:21.532Z,-11.90
2022-12-13T06:16:51.370Z,-12.20
2022-12-13T06:19:20.975Z,-11.80
2022-12-13T06:21:48.878Z,-11.70
2022-12-13T06:24:16.950Z,-11.90
2022-12-13T06:26:45.149Z,-12.10
2022-12-13T06:29:24.018Z,-12.00
2022-12-13T06:32:01.959Z,-11.70
2022-12-13T06:34:33.088Z,-11.30
2022-12-13T06:37:01.245Z,-11.50
2022-12-13T06:39:32.297Z,-11.40
2022-12-13T06:42:01.514Z,-11.90
2022-12-13T06:44:29.525Z,-11.80
2022-12-13T06:47:11.755Z,-12.00
2022-12-13T06:49:43.036Z,-12.20
2022-12-13T06:52:12.968Z,-11.90
2022-12-13T06:54:41.005Z,-11.60
2022-12-13T06:57:08.876Z,-11.30
2022-12-13T06:59:36.797Z,-11.40
2022-12-13T07:02:04.756Z,-12.20
2022-12-13T07:04:32.742Z,-12.20
2022-12-13T07:07:02.665Z,-12.00
2022-12-13T07:09:30.966Z,-11.50
2022-12-13T07:11:59.128Z,-11.50
2022-12-13T07:14:27.055Z,-11.90
2022-12-13T07:17:01.409Z,-11.60
2022-12-13T07:19:34.991Z,-11.60
2022-12-13T07:22:05.647Z,-11.70
2022-12-13T07:24:33.731Z,-11.50
2022-12-13T07:27:01.640Z,-12.00
2022-12-13T07:29:29.499Z,-11.90
2022-12-13T07:32:01.137Z,-11.60
2022-12-13T07:34:29.811Z,-11.70
2022-12-13T07:36:57.688Z,-12.00
2022-12-13T07:39:27.097Z,-11.70
2022-12-13T07:41:55.898Z,-11.50
2022-12-13T07:44:23.914Z,-11.30
2022-12-13T07:46:51.835Z,-11.50
2022-12-13T07:49:19.801Z,-11.20
2022-12-13T07:51:47.658Z,-11.60
2022-12-13T07:54:15.541Z,-11.60
2022-12-13T07:56:44.745Z,-11.30
2022-12-13T07:59:14.272Z,-11.50
2022-12-13T08:01:42.405Z,-11.20
2022-12-13T08:04:10.294Z,-11.00
2022-12-13T08:06:38.458Z,-11.10
2022-12-13T08:09:06.839Z,-11.00
2022-12-13T08:11:34.834Z,-11.10
2022-12-13T08:14:04.083Z,-10.80
2022-12-13T08:16:31.987Z,-10.60
2022-12-13T08:19:02.913Z,-10.90
2022-12-13T08:24:23.630Z,-10.50
2022-12-13T08:26:51.620Z,-8.80
2022-12-13T08:29:23.267Z,-7.80
2022-12-13T08:32:02.269Z,-7.90
2022-12-13T08:34:31.701Z,-8.90
2022-12-13T08:37:02.143Z,-9.10
2022-12-13T08:39:34.245Z,-8.90
2022-12-13T08:42:15.422Z,-8.70
2022-12-13T08:44:48.115Z,-8.60
2022-12-13T08:47:23.333Z,-8.90
2022-12-13T08:49:54.288Z,-8.70
2022-12-13T08:52:23.117Z,-8.70
2022-12-13T08:54:51.020Z,-8.50
2022-12-13T08:57:18.968Z,-8.60
2022-12-13T08:59:48.207Z,-8.40
2022-12-13T09:02:16.207Z,-8.20
2022-12-13T09:04:44.295Z,-8.50
2022-12-13T09:07:12.199Z,-8.30
2022-12-13T09:09:40.111Z,-8.20
2022-12-13T09:12:10.830Z,-8.10
2022-12-13T09:14:49.579Z,-8.00
2022-12-13T09:17:24.504Z,-7.90
2022-12-13T09:19:57.772Z,-7.70
2022-12-13T09:22:33.938Z,-7.50
2022-12-13T09:25:03.002Z,-7.30
2022-12-13T09:27:39.583Z,-7.30
2022-12-13T09:30:12.975Z,-7.20
2022-12-13T09:32:41.632Z,-6.90
2022-12-13T09:35:10.003Z,-6.70
2022-12-13T09:37:44.160Z,-6.20
2022-12-13T09:40:16.493Z,-6.20
2022-12-13T09:43:12.079Z,-6.10
2022-12-13T09:45:42.895Z,-6.00
2022-12-13T09:48:22.554Z,-5.80
2022-12-13T09:50:58.374Z,-5.60
2022-12-13T09:53:39.463Z,-5.30
2022-12-13T09:56:11.417Z,-5.40
2022-12-13T09:58:39.341Z,-5.20
2022-12-13T10:01:08.608Z,-4.70
2022-12-13T10:03:36.566Z,-4.70
2022-12-13T10:06:13.435Z,-4.40
2022-12-13T10:08:42.793Z,-5.00
2022-12-13T10:11:13.841Z,-4.60
2022-12-13T10:13:43.168Z,-4.30
2022-12-13T10:16:14.911Z,-4.10
2022-12-13T10:18:51.555Z,-4.10
2022-12-13T10:21:21.554Z,-3.60
2022-12-13T10:26:38.227Z,-3.10
2022-12-13T10:29:06.726Z,-3.30
2022-12-13T10:31:42.387Z,-3.50
2022-12-13T10:34:20.971Z,-3.30
2022-12-13T10:36:48.894Z,-2.70
2022-12-13T10:39:18.176Z,-3.00
2022-12-13T10:41:47.583Z,-3.00
2022-12-13T10:44:24.222Z,-2.80
2022-12-13T10:47:06.489Z,-3.30
2022-12-13T10:49:39.937Z,-3.00
2022-12-13T10:52:09.180Z,-3.20
2022-12-13T10:54:48.157Z,-3.10
2022-12-13T10:57:16.798Z,-3.40
2022-12-13T10:59:44.678Z,-3.00
2022-12-13T11:02:29.170Z,-2.90
2022-12-13T11:04:58.126Z,-3.10
2022-12-13T11:07:28.183Z,-3.10
2022-12-13T11:09:56.132Z,-3.00
2022-12-13T11:12:33.597Z,-3.30
2022-12-13T11:15:02.737Z,-3.40
2022-12-13T11:17:32.670Z,-3.00
2022-12-13T11:20:01.986Z,-3.00
2022-12-13T11:22:30.608Z,-3.00
2022-12-13T11:25:00.618Z,-3.50
2022-12-13T11:27:39.264Z,-3.30
2022-12-13T11:30:12.640Z,-3.70
2022-12-13T11:33:01.912Z,-3.50
2022-12-13T11:35:32.058Z,-3.50
2022-12-13T11:38:03.273Z,-3.30
2022-12-13T11:40:32.114Z,-3.20
2022-12-13T11:43:02.099Z,-3.20
2022-12-13T11:45:31.758Z,-3.40
2022-12-13T11:48:04.239Z,-3.70
2022-12-13T11:50:34.331Z,-3.70
2022-12-13T11:53:20.316Z,-3.60
2022-12-13T11:55:50.219Z,-3.20
2022-12-13T11:58:45.736Z,-3.40
2022-12-13T12:01:10.588Z,-3.00
2022-12-13T12:03:41.996Z,-2.70
2022-12-13T12:06:13.330Z,-3.20
2022-12-13T12:08:43.467Z,-3.30
2022-12-13T12:11:15.721Z,-3.70
2022-12-13T12:13:50.421Z,-3.90
2022-12-13T12:16:24.416Z,-3.60
2022-12-13T12:18:53.706Z,-3.30
2022-12-13T12:21:49.196Z,-3.10
2022-12-13T12:24:19.935Z,-3.10
2022-12-13T12:26:52.088Z,-3.40
2022-12-13T12:29:28.993Z,-3.20
2022-12-13T12:31:58.907Z,-2.80
2022-12-13T12:34:32.553Z,-3.20
2022-12-13T12:37:05.248Z,-2.80
2022-12-13T12:39:35.780Z,-2.80
2022-12-13T12:42:29.016Z,-2.80
2022-12-13T12:45:05.239Z,-2.60
2022-12-13T12:48:07.275Z,-2.70
2022-12-13T12:50:29.607Z,-2.60
2022-12-13T12:53:01.960Z,-2.20
2022-12-13T12:55:38.148Z,-2.30
2022-12-13T12:58:10.310Z,-2.30
2022-12-13T13:00:41.994Z,-1.60
2022-12-13T13:03:18.750Z,-2.30
2022-12-13T13:05:55.910Z,-2.40
2022-12-13T13:08:30.078Z,-2.20
2022-12-13T13:11:01.978Z,-2.20
2022-12-13T13:13:46.542Z,-2.30
2022-12-13T13:16:31.260Z,-1.90
2022-12-13T13:18:59.366Z,-2.00
2022-12-13T13:21:48.178Z,-2.00
2022-12-13T13:24:18.159Z,-2.60
2022-12-13T13:26:46.866Z,-2.50
2022-12-13T13:29:35.439Z,-2.70
2022-12-13T13:32:05.735Z,-3.10
2022-12-13T13:34:34.357Z,-3.30
2022-12-13T13:37:03.632Z,-3.10
2022-12-13T13:39:56.483Z,-3.20
2022-12-13T13:42:24.494Z,-3.80
2022-12-13T13:45:22.319Z,-3.90
2022-12-13T13:47:55.243Z,-4.10
2022-12-13T13:50:54.943Z,-4.00
2022-12-13T13:54:00.257Z,-3.80
2022-12-13T13:56:44.886Z,-4.00
2022-12-13T13:59:48.170Z,-4.20
2022-12-13T14:02:51.417Z,-4.10
2022-12-13T14:06:01.292Z,-4.10
2022-12-13T14:08:32.352Z,-4.50
2022-12-13T14:11:17.097Z,-4.60
2022-12-13T14:14:21.783Z,-4.60
2022-12-13T14:17:15.503Z,-4.60
2022-12-13T14:20:10.881Z,-4.50
2022-12-13T14:22:40.826Z,-4.60
2022-12-13T14:25:28.122Z,-4.90
2022-12-13T14:28:00.699Z,-4.80
2022-12-13T14:30:29.479Z,-4.40
2022-12-13T14:32:57.616Z,-4.40
2022-12-13T14:35:27.216Z,-4.60
2022-12-13T14:37:59.972Z,-5.10
2022-12-13T14:40:30.589Z,-5.20
2022-12-13T14:42:59.985Z,-4.70
2022-12-13T14:45:29.512Z,-4.60
2022-12-13T14:47:58.684Z,-4.80
2022-12-13T14:50:27.069Z,-5.10
2022-12-13T14:52:55.034Z,-5.20
2022-12-13T14:55:25.953Z,-5.00
2022-12-13T14:57:54.958Z,-5.20
2022-12-13T15:00:26.799Z,-5.30
2022-12-13T15:02:55.960Z,-5.20
2022-12-13T15:05:28.929Z,-5.10
2022-12-13T15:07:57.257Z,-5.10
2022-12-13T15:10:29.106Z,-5.20
2022-12-13T15:12:56.999Z,-5.20
2022-12-13T15:15:30.177Z,-5.30
2022-12-13T15:18:08.658Z,-5.30
2022-12-13T15:20:39.429Z,-5.30
2022-12-13T15:23:11.738Z,-5.20
2022-12-13T15:25:39.630Z,-5.40
2022-12-13T15:28:07.877Z,-5.50
2022-12-13T15:30:37.143Z,-5.40
2022-12-13T15:33:07.020Z,-5.50
2022-12-13T15:35:36.507Z,-5.40
2022-12-13T15:38:04.362Z,-5.40
2022-12-13T15:40:32.230Z,-5.40
2022-12-13T15:43:00.077Z,-5.40
2022-12-13T15:45:34.808Z,-5.30
2022-12-13T15:48:06.369Z,-5.40
2022-12-13T15:50:35.930Z,-5.40
2022-12-13T15:53:05.164Z,-5.40
2022-12-13T15:55:36.429Z,-5.40
2022-12-13T15:58:04.345Z,-5.30
2022-12-13T16:00:32.720Z,-5.50
2022-12-13T16:03:09.662Z,-5.50
2022-12-13T16:05:40.181Z,-5.60
2022-12-13T16:08:13.630Z,-5.60
2022-12-13T16:10:47.412Z,-5.40
2022-12-13T16:13:26.087Z,-5.50
2022-12-13T16:16:00.524Z,-5.40
2022-12-13T16:18:43.469Z,-5.30
2022-12-13T16:21:12.695Z,-5.50
2022-12-13T16:23:40.767Z,-5.60
2022-12-13T16:26:21.191Z,-5.60
2022-12-13T16:28:49.030Z,-5.70
2022-12-13T16:31:18.013Z,-5.50
2022-12-13T16:33:45.886Z,-5.40
2022-12-13T16:36:15.103Z,-5.50
2022-12-13T16:38:42.948Z,-5.70
2022-12-13T16:41:10.828Z,-5.70
2022-12-13T16:43:40.435Z,-5.80
2022-12-13T16:47:14.732Z,-5.60
2022-12-13T16:48:56.319Z,-5.60
2022-12-13T16:51:25.571Z,-5.60
2022-12-13T16:53:53.423Z,-5.60
2022-12-13T16:56:22.404Z,-5.40
2022-12-13T16:58:50.857Z,-5.30
2022-12-13T17:01:20.484Z,-5.50
2022-12-13T17:03:48.649Z,-5.60
2022-12-13T17:06:17.236Z,-5.70
2022-12-13T17:08:46.546Z,-5.80
2022-12-13T17:11:18.108Z,-6.00
2022-12-13T17:13:48.083Z,-5.90
2022-12-13T17:16:16.019Z,-5.80
2022-12-13T17:18:43.963Z,-5.80
2022-12-13T17:21:11.956Z,-5.80
2022-12-13T17:23:39.855Z,-5.90
2022-12-13T17:26:10.478Z,-5.80
2022-12-13T17:28:38.483Z,-5.80
2022-12-13T17:31:07.517Z,-5.90
2022-12-13T17:33:35.826Z,-5.80
2022-12-13T17:36:04.169Z,-6.00
2022-12-13T17:38:32.059Z,-6.10
2022-12-13T17:41:00.716Z,-6.10
2022-12-13T17:43:34.717Z,-6.00
2022-12-13T17:46:03.792Z,-5.90
2022-12-13T17:48:39.299Z,-5.80
2022-12-13T17:51:08.779Z,-5.80
2022-12-13T17:53:36.843Z,-5.90
2022-12-13T17:56:05.617Z,-5.80
2022-12-13T17:58:34.891Z,-5.90
2022-12-13T18:01:11.462Z,-6.10
2022-12-13T18:03:39.412Z,-5.90
2022-12-13T18:06:08.028Z,-5.80
2022-12-13T18:08:36.665Z,-5.80
2022-12-13T18:13:54.874Z,-6.00
2022-12-13T18:16:23.958Z,-6.00
2022-12-13T18:18:54.873Z,-6.00
2022-12-13T18:21:22.993Z,-6.10
2022-12-13T18:23:55.400Z,-5.70
2022-12-13T18:26:24.332Z,-5.30
2022-12-13T18:28:53.938Z,-5.50
2022-12-13T18:31:23.151Z,-5.90
2022-12-13T18:33:51.652Z,-6.00
2022-12-13T18:36:19.996Z,-6.10
2022-12-13T18:38:47.925Z,-6.10
2022-12-13T18:41:16.692Z,-5.90
2022-12-13T18:43:44.695Z,-6.00
2022-12-13T18:46:14.165Z,-6.10
2022-12-13T18:48:42.134Z,-6.10
2022-12-13T18:51:10.753Z,-5.80
2022-12-13T18:53:38.932Z,-5.80
2022-12-13T18:56:11.637Z,-5.90
2022-12-13T18:58:44.247Z,-5.80
2022-12-13T19:01:13.770Z,-5.90
2022-12-13T19:03:42.986Z,-5.80
2022-12-13T19:06:12.233Z,-5.80
2022-12-13T19:08:40.078Z,-5.70
2022-12-13T19:11:07.928Z,-5.70
2022-12-13T19:13:35.767Z,-5.80
2022-12-13T19:16:06.095Z,-5.80
2022-12-13T19:18:35.722Z,-5.90
2022-12-13T19:21:03.570Z,-5.90
2022-12-13T19:23:32.160Z,-5.80
2022-12-13T19:26:04.843Z,-6.00
2022-12-13T19:28:32.712Z,-6.00
2022-12-13T19:31:00.585Z,-6.00
2022-12-13T19:33:28.790Z,-5.90
2022-12-13T19:35:58.225Z,-6.00
2022-12-13T19:38:26.132Z,-6.00
2022-12-13T19:40:53.981Z,-6.00
2022-12-13T19:43:22.085Z,-6.00
2022-12-13T19:45:50.086Z,-6.00
2022-12-13T19:48:17.988Z,-5.90
2022-12-13T19:50:45.846Z,-5.90
2022-12-13T19:53:15.111Z,-5.90
2022-12-13T19:55:48.325Z,-6.00
2022-12-13T19:58:16.497Z,-5.80
2022-12-13T20:00:44.422Z,-5.80
2022-12-13T20:03:12.317Z,-5.90
2022-12-13T20:05:45.509Z,-6.00
2022-12-13T20:08:15.041Z,-6.00
2022-12-13T20:10:42.932Z,-5.80
2022-12-13T20:13:10.931Z,-5.80
2022-12-13T20:15:38.896Z,-5.90
2022-12-13T20:18:06.900Z,-6.00
2022-12-13T20:21:09.432Z,-6.00
2022-12-13T20:23:24.602Z,-5.90
2022-12-13T20:26:00.662Z,-5.80
2022-12-13T20:28:28.591Z,-5.80
2022-12-13T20:31:05.520Z,-5.60
2022-12-13T20:33:33.395Z,-5.70
2022-12-13T20:36:29.893Z,-5.70
2022-12-13T20:38:55.949Z,-5.70
2022-12-13T20:41:24.544Z,-5.60
2022-12-13T20:43:52.876Z,-5.50
2022-12-13T20:46:21.347Z,-5.50
2022-12-13T20:48:49.724Z,-5.70
2022-12-13T20:51:19.166Z,-5.60
2022-12-13T20:53:48.345Z,-5.40
2022-12-13T20:56:18.505Z,-5.50
2022-12-13T20:58:46.370Z,-5.50
2022-12-13T21:01:16.034Z,-5.40
2022-12-13T21:03:44.100Z,-5.60
2022-12-13T21:06:11.983Z,-5.70
2022-12-13T21:08:52.136Z,-5.60
2022-12-13T21:11:28.827Z,-5.70
2022-12-13T21:14:03.772Z,-5.70
2022-12-13T21:16:34.533Z,-5.50
2022-12-13T21:19:02.516Z,-5.30
2022-12-13T21:21:30.746Z,-5.60
2022-12-13T21:23:58.609Z,-5.80
2022-12-13T21:26:33.271Z,-5.60
2022-12-13T21:29:04.301Z,-5.40
2022-12-13T21:31:32.245Z,-5.50
2022-12-13T21:34:01.328Z,-5.70
2022-12-13T21:36:29.841Z,-5.70
2022-12-13T21:38:58.373Z,-5.50
2022-12-13T21:41:27.644Z,-5.50
2022-12-13T21:43:55.606Z,-5.50
2022-12-13T21:46:25.950Z,-5.40
2022-12-13T21:48:57.617Z,-5.30
2022-12-13T21:51:26.299Z,-5.30
2022-12-13T21:53:54.464Z,-5.30
2022-12-13T21:56:40.958Z,-5.20
2022-12-13T21:59:17.744Z,-5.30
2022-12-13T22:02:04.471Z,-5.30
2022-12-13T22:04:32.531Z,-5.40
2022-12-13T22:07:00.575Z,-5.30
2022-12-13T22:09:28.502Z,-5.30
2022-12-13T22:11:56.426Z,-5.30
2022-12-13T22:14:25.627Z,-5.30
2022-12-13T22:16:53.517Z,-5.30
2022-12-13T22:19:21.406Z,-5.40
2022-12-13T22:21:49.561Z,-5.30
2022-12-13T22:24:17.563Z,-5.20
2022-12-13T22:26:45.437Z,-5.30
2022-12-13T22:29:13.465Z,-5.20
2022-12-13T22:31:42.764Z,-5.30
2022-12-13T22:34:16.960Z,-5.20
2022-12-13T22:36:44.836Z,-5.20
2022-12-13T22:39:16.143Z,-5.20
2022-12-13T22:41:44.032Z,-5.30
2022-12-13T22:44:12.315Z,-5.30
2022-12-13T22:46:40.219Z,-5.20
2022-12-13T22:49:09.461Z,-5.20
2022-12-13T22:51:37.339Z,-5.30
2022-12-13T22:54:05.406Z,-5.40
2022-12-13T22:56:33.350Z,-5.30
2022-12-13T22:59:02.263Z,-5.20
2022-12-13T23:01:31.082Z,-5.10
2022-12-13T23:03:59.028Z,-5.20
2022-12-13T23:06:29.379Z,-5.20
2022-12-13T23:08:58.129Z,-5.20
2022-12-13T23:11:43.459Z,-5.30
2022-12-13T23:14:11.978Z,-5.20
2022-12-13T23:16:40.105Z,-5.10
2022-12-13T23:19:40.285Z,-5.10
2022-12-13T23:21:59.274Z,-5.20
2022-12-13T23:24:27.301Z,-5.20
2022-12-13T23:26:55.186Z,-5.20
2022-12-13T23:29:23.054Z,-5.10
2022-12-13T23:31:50.911Z,-5.00
2022-12-13T23:34:18.771Z,-5.00
2022-12-13T23:36:46.680Z,-5.10
2022-12-13T23:39:15.880Z,-5.10
2022-12-13T23:41:43.742Z,-5.10
2022-12-13T23:44:11.601Z,-5.00
2022-12-13T23:46:39.602Z,-5.00
2022-12-13T23:49:07.590Z,-4.90
2022-12-13T23:51:37.750Z,-5.00
2022-12-13T23:54:06.006Z,-5.00
2022-12-13T23:56:35.415Z,-5.00
2022-12-13T23:59:03.272Z,-5.10
